createdAt,value
2023-03-11T00:00:28.883Z,0.25
2023-03-11T00:05:35.240Z,0.18
2023-03-11T00:10:41.863Z,0.10
2023-03-11T00:15:48.069Z,0.27
2023-03-11T00:20:54.456Z,0.13
2023-03-11T00:26:00.688Z,0.12
2023-03-11T00:31:07.198Z,0.28
2023-03-11T00:36:13.456Z,0.15
2023-03-11T00:41:20.025Z,0.10
2023-03-11T00:46:26.319Z,0.10
2023-03-11T00:51:34.267Z,0.12
2023-03-11T00:56:38.600Z,0.22
2023-03-11T01:01:45.142Z,0.26
2023-03-11T01:06:52.658Z,0.09
2023-03-11T01:11:59.008Z,0.27
2023-03-11T01:17:05.219Z,0.27
2023-03-11T01:22:11.908Z,0.20
2023-03-11T01:27:18.205Z,0.13
2023-03-11T01:32:24.741Z,0.19
2023-03-11T01:37:30.903Z,0.21
2023-03-11T01:42:37.698Z,0.30
2023-03-11T01:47:43.892Z,0.26
2023-03-11T01:52:50.439Z,0.21
2023-03-11T01:57:56.758Z,0.25
2023-03-11T02:03:03.300Z,0.13
2023-03-11T02:08:09.550Z,0.18
2023-03-11T02:13:15.896Z,0.20
2023-03-11T02:18:22.171Z,0.12
2023-03-11T02:23:28.593Z,0.11
2023-03-11T02:28:34.815Z,0.19
2023-03-11T02:33:41.229Z,0.13
2023-03-11T02:38:47.550Z,0.22
2023-03-11T02:43:54.168Z,0.36
2023-03-11T02:49:00.431Z,0.17
2023-03-11T02:54:06.738Z,0.24
2023-03-11T02:59:13.008Z,0.27
2023-03-11T03:04:19.598Z,0.49
2023-03-11T03:09:25.848Z,0.48
2023-03-11T03:14:32.278Z,0.42
2023-03-11T03:19:38.511Z,0.53
2023-03-11T03:24:45.069Z,0.40
2023-03-11T03:29:51.328Z,0.28
2023-03-11T03:34:57.926Z,0.30
2023-03-11T03:40:04.154Z,0.25
2023-03-11T03:45:10.495Z,0.26
2023-03-11T03:50:16.832Z,0.25
2023-03-11T03:55:23.239Z,0.47
2023-03-11T04:00:29.572Z,0.52
2023-03-11T04:05:36.036Z,0.24
2023-03-11T04:10:42.328Z,0.50
2023-03-11T04:15:48.748Z,0.45
2023-03-11T04:20:55.000Z,0.20
2023-03-11T04:26:01.649Z,0.31
2023-03-11T04:31:07.924Z,0.34
2023-03-11T04:36:14.326Z,0.36
2023-03-11T04:41:20.643Z,0.46
2023-03-11T04:46:27.210Z,0.37
2023-03-11T04:51:33.446Z,0.34
2023-03-11T04:56:40.005Z,0.48
2023-03-11T05:01:46.331Z,0.27
2023-03-11T05:06:52.644Z,0.38
2023-03-11T05:11:59.370Z,0.34
2023-03-11T05:17:05.705Z,0.33
2023-03-11T05:22:12.014Z,0.20
2023-03-11T05:27:18.452Z,0.25
2023-03-11T05:32:24.827Z,0.18
2023-03-11T05:37:31.128Z,0.74
2023-03-11T05:42:37.404Z,0.34
2023-03-11T05:47:43.827Z,0.39
2023-03-11T05:52:50.091Z,0.20
2023-03-11T05:57:56.586Z,0.20
2023-03-11T06:03:02.872Z,0.20
2023-03-11T06:08:09.414Z,0.38
2023-03-11T06:13:15.979Z,0.28
2023-03-11T06:18:22.480Z,0.33
2023-03-11T06:23:28.808Z,0.18
2023-03-11T06:28:35.294Z,0.13
2023-03-11T06:33:44.902Z,0.25
2023-03-11T06:38:51.364Z,0.32
2023-03-11T06:43:57.657Z,0.15
2023-03-11T06:49:04.375Z,0.10
2023-03-11T06:54:10.650Z,0.22
2023-03-11T06:59:17.063Z,0.21
2023-03-11T07:04:23.427Z,0.10
2023-03-11T07:09:29.860Z,0.25
2023-03-11T07:14:36.179Z,0.13
2023-03-11T07:19:42.611Z,0.31
2023-03-11T07:24:48.814Z,0.23
2023-03-11T07:29:55.186Z,0.14
2023-03-11T07:35:01.573Z,0.12
2023-03-11T07:40:08.146Z,0.11
2023-03-11T07:45:14.419Z,0.59
2023-03-11T07:50:20.791Z,0.29
2023-03-11T07:55:26.992Z,0.08
2023-03-11T08:00:41.806Z,0.20
2023-03-11T08:05:38.019Z,0.14
2023-03-11T08:10:44.326Z,0.08
2023-03-11T08:15:51.149Z,0.05
2023-03-11T08:20:57.567Z,0.13
2023-03-11T08:26:03.804Z,0.31
2023-03-11T08:31:10.530Z,0.02
2023-03-11T08:36:16.669Z,0.11
2023-03-11T08:41:23.133Z,0.05
2023-03-11T08:46:29.407Z,0.01
2023-03-11T08:51:35.774Z,0.05
2023-03-11T08:56:41.977Z,0.04
2023-03-11T09:01:48.341Z,0.06
2023-03-11T09:06:54.592Z,0.03
2023-03-11T09:12:01.051Z,0.07
2023-03-11T09:17:07.658Z,0.08
2023-03-11T09:22:14.280Z,0.07
2023-03-11T09:27:20.490Z,0.03
2023-03-11T09:32:26.950Z,0.03
2023-03-11T09:37:33.178Z,0.17
2023-03-11T09:42:39.526Z,0.11
2023-03-11T09:47:45.829Z,0.18
2023-03-11T09:52:52.205Z,0.08
2023-03-11T09:57:58.437Z,0.06
2023-03-11T10:03:05.014Z,0.04
2023-03-11T10:08:11.239Z,0.05
2023-03-11T10:13:17.684Z,0.16
2023-03-11T10:18:24.079Z,0.10
2023-03-11T10:23:30.518Z,0.06
2023-03-11T10:28:36.765Z,0.07
2023-03-11T10:33:43.056Z,0.10
2023-03-11T10:38:49.388Z,0.06
2023-03-11T10:43:56.017Z,0.08
2023-03-11T10:49:02.340Z,0.06
2023-03-11T10:54:08.822Z,0.08
2023-03-11T10:59:15.041Z,0.09
2023-03-11T11:04:21.491Z,0.10
2023-03-11T11:09:27.653Z,0.11
2023-03-11T11:14:34.066Z,0.19
2023-03-11T11:19:40.392Z,0.22
2023-03-11T11:24:47.019Z,0.16
2023-03-11T11:29:53.099Z,0.06
2023-03-11T11:34:59.500Z,0.10
2023-03-11T11:40:05.789Z,0.05
2023-03-11T11:45:12.131Z,0.14
2023-03-11T11:50:18.420Z,0.10
2023-03-11T11:55:24.853Z,0.11
2023-03-11T12:00:31.084Z,0.10
2023-03-11T12:05:37.888Z,0.09
2023-03-11T12:10:44.007Z,0.17
2023-03-11T12:15:50.504Z,0.13
2023-03-11T12:20:56.764Z,0.10
2023-03-11T12:26:03.333Z,0.10
2023-03-11T12:31:09.663Z,0.07
2023-03-11T12:36:16.023Z,0.16
2023-03-11T12:41:22.203Z,0.10
2023-03-11T12:46:28.970Z,0.10
2023-03-11T12:51:35.182Z,0.10
2023-03-11T12:56:41.511Z,0.10
2023-03-11T13:01:47.733Z,0.10
2023-03-11T13:06:54.253Z,0.18
2023-03-11T13:12:00.570Z,0.09
2023-03-11T13:17:07.121Z,0.09
2023-03-11T13:22:13.340Z,0.11
2023-03-11T13:27:19.757Z,0.16
2023-03-11T13:32:26.049Z,0.16
2023-03-11T13:37:32.568Z,0.10
2023-03-11T13:42:53.717Z,0.10
2023-03-11T13:47:40.212Z,0.10
2023-03-11T13:52:46.463Z,0.10
2023-03-11T13:57:52.938Z,0.09
2023-03-11T14:02:59.310Z,0.10
2023-03-11T14:08:05.619Z,0.10
2023-03-11T14:13:11.861Z,0.19
2023-03-11T14:18:18.277Z,0.10
2023-03-11T14:23:24.683Z,0.10
2023-03-11T14:28:31.076Z,0.10
2023-03-11T14:33:37.348Z,0.10
2023-03-11T14:38:43.740Z,0.15
2023-03-11T14:43:49.903Z,0.10
2023-03-11T14:48:56.353Z,0.10
2023-03-11T14:54:02.709Z,0.10
2023-03-11T14:59:10.544Z,0.16
2023-03-11T15:04:15.039Z,0.16
2023-03-11T15:09:21.638Z,0.10
2023-03-11T15:14:27.911Z,0.18
2023-03-11T15:19:34.369Z,0.10
2023-03-11T15:24:40.616Z,0.10
2023-03-11T15:29:47.198Z,0.09
2023-03-11T15:34:53.431Z,0.14
2023-03-11T15:39:59.761Z,0.05
2023-03-11T15:45:05.949Z,0.16
2023-03-11T15:50:23.478Z,0.15
2023-03-11T15:55:18.216Z,0.26
2023-03-11T16:00:24.726Z,0.13
2023-03-11T16:05:30.978Z,0.13
2023-03-11T16:10:37.494Z,0.18
2023-03-11T16:15:43.848Z,0.17
2023-03-11T16:20:50.404Z,0.19
2023-03-11T16:25:56.727Z,0.12
2023-03-11T16:31:03.219Z,0.17
2023-03-11T16:36:09.566Z,0.12
2023-03-11T16:41:16.180Z,0.14
2023-03-11T16:46:22.603Z,0.15
2023-03-11T16:51:28.896Z,0.15
2023-03-11T16:56:35.218Z,0.18
2023-03-11T17:01:41.664Z,0.10
2023-03-11T17:06:47.967Z,0.08
2023-03-11T17:11:54.328Z,0.10
2023-03-11T17:17:00.556Z,0.10
2023-03-11T17:22:06.974Z,0.15
2023-03-11T17:27:13.228Z,0.10
2023-03-11T17:32:19.902Z,0.11
2023-03-11T17:37:26.352Z,0.17
2023-03-11T17:42:32.771Z,0.15
2023-03-11T17:47:39.049Z,0.10
2023-03-11T17:52:45.577Z,0.12
2023-03-11T17:57:51.811Z,0.11
2023-03-11T18:02:58.351Z,0.27
2023-03-11T18:08:04.542Z,0.10
2023-03-11T18:13:10.972Z,0.11
2023-03-11T18:18:17.242Z,0.10
2023-03-11T18:23:23.682Z,0.10
2023-03-11T18:28:29.959Z,0.10
2023-03-11T18:33:36.494Z,0.10
2023-03-11T18:38:43.256Z,0.13
2023-03-11T18:43:49.736Z,0.11
2023-03-11T18:48:56.013Z,0.10
2023-03-11T18:54:02.424Z,0.21
2023-03-11T18:59:08.687Z,0.18
2023-03-11T19:04:15.307Z,0.10
2023-03-11T19:09:21.614Z,0.10
2023-03-11T19:14:28.342Z,0.10
2023-03-11T19:19:34.510Z,0.09
2023-03-11T19:24:40.905Z,0.11
2023-03-11T19:29:47.225Z,0.12
2023-03-11T19:34:53.602Z,0.10
2023-03-11T19:39:59.943Z,0.20
2023-03-11T19:45:06.387Z,0.22
2023-03-11T19:50:12.730Z,0.15
2023-03-11T19:55:19.155Z,0.11
2023-03-11T20:00:25.460Z,0.19
2023-03-11T20:05:31.859Z,0.15
2023-03-11T20:10:53.040Z,0.10
2023-03-11T20:15:39.603Z,0.10
2023-03-11T20:20:45.777Z,0.10
2023-03-11T20:25:52.262Z,0.11
2023-03-11T20:30:58.543Z,0.10
2023-03-11T20:36:05.077Z,0.10
2023-03-11T20:41:11.786Z,0.15
2023-03-11T20:46:18.285Z,0.10
2023-03-11T20:51:24.545Z,0.10
2023-03-11T20:56:30.914Z,0.15
2023-03-11T21:01:37.120Z,0.10
2023-03-11T21:06:43.548Z,0.10
2023-03-11T21:11:49.868Z,0.10
2023-03-11T21:16:56.291Z,0.10
2023-03-11T21:22:02.535Z,0.10
2023-03-11T21:27:09.107Z,0.10
2023-03-11T21:32:15.603Z,0.10
2023-03-11T21:37:21.856Z,0.10
2023-03-11T21:42:28.319Z,0.11
2023-03-11T21:47:34.796Z,0.10
2023-03-11T21:52:41.026Z,0.11
2023-03-11T21:57:47.378Z,0.10
2023-03-11T22:02:53.612Z,0.11
2023-03-11T22:08:00.114Z,0.15
2023-03-11T22:13:06.215Z,0.10
2023-03-11T22:18:12.754Z,0.10
2023-03-11T22:23:18.850Z,0.10
2023-03-11T22:28:25.401Z,0.10
2023-03-11T22:33:31.625Z,0.09
2023-03-11T22:38:40.737Z,0.08
2023-03-11T22:43:44.307Z,0.10
2023-03-11T22:48:50.883Z,0.29
2023-03-11T22:53:57.097Z,0.10
2023-03-11T22:59:03.729Z,0.09
2023-03-11T23:04:10.233Z,0.11
2023-03-11T23:09:16.949Z,0.09
2023-03-11T23:14:30.698Z,0.09
2023-03-11T23:19:29.258Z,0.09
2023-03-11T23:24:35.482Z,0.27
2023-03-11T23:29:41.792Z,0.08
2023-03-11T23:34:48.116Z,0.14
2023-03-11T23:39:54.567Z,0.10
2023-03-11T23:45:00.843Z,0.10
2023-03-11T23:50:07.440Z,0.10
2023-03-11T23:55:13.679Z,0.10
